This is the latest recevied weather packets stored in our database for station/object IU1FIL-23. If no packets are shown the sender has not sent any weather packets the latest 10 day(s).
| Time | Temp. | Humidity | Pressure | Rain* | Wind** | Luminosity | Snow |
|---|---|---|---|---|---|---|---|
| 1777516915 | 12.22° C | 70% | 1019.3 hPa | - | - | - | - |
| 1777516311 | 12.22° C | 69% | 1019.2 hPa | - | - | - | - |
| 1777515707 | 12.78° C | 69% | 1019.1 hPa | - | - | - | - |
| 1777515103 | 12.22° C | 69% | 1019 hPa | - | - | - | - |
| 1777514499 | 12.22° C | 69% | 1018.9 hPa | - | - | - | - |
| 1777513895 | 12.22° C | 68% | 1018.8 hPa | - | - | - | - |
| 1777512082 | 11.67° C | 67% | 1018.9 hPa | - | - | - | - |
| 1777511478 | 12.22° C | 66% | 1018.9 hPa | - | - | - | - |
| 1777510270 | 12.22° C | 63% | 1019.1 hPa | - | - | - | - |
| 1777509062 | 12.78° C | 62% | 1019.3 hPa | - | - | - | - |
| 1777508458 | 12.78° C | 61% | 1019.2 hPa | - | - | - | - |
| 1777507854 | 12.78° C | 60% | 1019.2 hPa | - | - | - | - |
| 1777507250 | 12.78° C | 59% | 1019.2 hPa | - | - | - | - |
| 1777500585 | 11.67° C | 56% | 1019 hPa | - | - | - | - |
| 1777497564 | 11.11° C | 52% | 1018.8 hPa | - | - | - | - |
| 1777496356 | 11.11° C | 51% | 1018.6 hPa | - | - | - | - |
| 1777495752 | 11.11° C | 49% | 1018.6 hPa | - | - | - | - |
| 1777493939 | 11.11° C | 47% | 1018.3 hPa | - | - | - | - |
| 1777493335 | 11.11° C | 48% | 1018.2 hPa | - | - | - | - |
| 1777491523 | 10.56° C | 43% | 1017.8 hPa | - | - | - | - |
| 1777490919 | 10.56° C | 43% | 1017.7 hPa | - | - | - | - |
| 1777490315 | 10° C | 42% | 1017.6 hPa | - | - | - | - |
| 1777489711 | 10° C | 42% | 1017.5 hPa | - | - | - | - |
| 1777487898 | 10.56° C | 44% | 1017.5 hPa | - | - | - | - |
| 1777487294 | 10.56° C | 45% | 1017.5 hPa | - | - | - | - |
* Rain since midnight (hover to see other rain measurements)
** Current wind speed in m/s (hover to see current wind gust speed)